sensor_id;sensor_type;location;lat;lon;timestamp;P1;durP1;ratioP1;P2;durP2;ratioP2
62256;SDS011;48240;52.962;5.790;2023-04-03T04:52:03;1.80;;;0.70;;
62256;SDS011;48240;52.962;5.790;2023-04-03T04:54:30;2.05;;;0.90;;
62256;SDS011;48240;52.962;5.790;2023-04-03T04:56:56;2.08;;;0.85;;
62256;SDS011;48240;52.962;5.790;2023-04-03T04:59:22;2.63;;;0.80;;
62256;SDS011;48240;52.962;5.790;2023-04-03T05:01:48;1.80;;;0.80;;
62256;SDS011;48240;52.962;5.790;2023-04-03T05:04:15;2.63;;;0.95;;
62256;SDS011;48240;52.962;5.790;2023-04-03T05:06:41;2.55;;;0.80;;
62256;SDS011;48240;52.962;5.790;2023-04-03T05:09:07;1.27;;;0.70;;
62256;SDS011;48240;52.962;5.790;2023-04-03T05:11:34;1.77;;;0.93;;
62256;SDS011;48240;52.962;5.790;2023-04-03T05:14:01;1.77;;;1.00;;
62256;SDS011;48240;52.962;5.790;2023-04-03T05:16:27;2.25;;;0.82;;
62256;SDS011;48240;52.962;5.790;2023-04-03T05:18:53;2.42;;;0.93;;
62256;SDS011;48240;52.962;5.790;2023-04-03T05:21:19;3.05;;;1.10;;
62256;SDS011;48240;52.962;5.790;2023-04-03T05:23:48;1.35;;;0.80;;
62256;SDS011;48240;52.962;5.790;2023-04-03T05:26:14;2.90;;;1.00;;
62256;SDS011;48240;52.962;5.790;2023-04-03T05:28:40;1.63;;;0.80;;
62256;SDS011;48240;52.962;5.790;2023-04-03T05:31:06;1.35;;;0.95;;
62256;SDS011;48240;52.962;5.790;2023-04-03T05:33:32;2.03;;;0.95;;
62256;SDS011;48240;52.962;5.790;2023-04-03T05:36:01;2.90;;;1.08;;
62256;SDS011;48240;52.962;5.790;2023-04-03T05:38:28;3.42;;;1.10;;
62256;SDS011;48240;52.962;5.790;2023-04-03T05:40:54;3.13;;;1.20;;
62256;SDS011;48240;52.962;5.790;2023-04-03T05:43:21;2.70;;;0.90;;
62256;SDS011;48240;52.962;5.790;2023-04-03T05:45:47;2.30;;;0.93;;
62256;SDS011;48240;52.962;5.790;2023-04-03T05:48:13;3.17;;;1.00;;
62256;SDS011;48240;52.962;5.790;2023-04-03T05:50:39;5.95;;;1.10;;
62256;SDS011;48240;52.962;5.790;2023-04-03T05:53:07;3.55;;;1.00;;
62256;SDS011;48240;52.962;5.790;2023-04-03T05:55:36;2.08;;;1.00;;
62256;SDS011;48240;52.962;5.790;2023-04-03T05:58:02;1.00;;;0.75;;
62256;SDS011;48240;52.962;5.790;2023-04-03T06:00:29;3.65;;;0.80;;
62256;SDS011;48240;52.962;5.790;2023-04-03T06:02:55;1.55;;;0.82;;
62256;SDS011;48240;52.962;5.790;2023-04-03T06:05:21;2.58;;;0.90;;
62256;SDS011;48240;52.962;5.790;2023-04-03T06:07:47;3.85;;;1.05;;
62256;SDS011;48240;52.962;5.790;2023-04-03T06:10:15;2.08;;;1.05;;
62256;SDS011;48240;52.962;5.790;2023-04-03T06:12:41;2.20;;;0.90;;
62256;SDS011;48240;52.962;5.790;2023-04-03T06:15:07;2.60;;;1.08;;
62256;SDS011;48240;52.962;5.790;2023-04-03T06:17:35;2.58;;;0.93;;
62256;SDS011;48240;52.962;5.790;2023-04-03T06:20:02;1.08;;;0.80;;
62256;SDS011;48240;52.962;5.790;2023-04-03T06:22:29;5.60;;;1.10;;
62256;SDS011;48240;52.962;5.790;2023-04-03T06:24:55;2.90;;;1.10;;
62256;SDS011;48240;52.962;5.790;2023-04-03T06:27:21;5.93;;;1.10;;
62256;SDS011;48240;52.962;5.790;2023-04-03T06:29:48;5.28;;;1.10;;
62256;SDS011;48240;52.962;5.790;2023-04-03T06:32:14;4.90;;;1.17;;
62256;SDS011;48240;52.962;5.790;2023-04-03T06:34:41;1.98;;;1.20;;
62256;SDS011;48240;52.962;5.790;2023-04-03T06:37:10;1.60;;;0.93;;
62256;SDS011;48240;52.962;5.790;2023-04-03T06:39:36;3.40;;;1.00;;
62256;SDS011;48240;52.962;5.790;2023-04-03T06:42:02;3.30;;;1.25;;
62256;SDS011;48240;52.962;5.790;2023-04-03T06:44:28;3.90;;;1.10;;
62256;SDS011;48240;52.962;5.790;2023-04-03T06:46:55;2.30;;;0.80;;
62256;SDS011;48240;52.962;5.790;2023-04-03T06:49:21;1.42;;;0.90;;
62256;SDS011;48240;52.962;5.790;2023-04-03T06:51:47;3.38;;;1.00;;
62256;SDS011;48240;52.962;5.790;2023-04-03T06:54:13;2.80;;;1.10;;
62256;SDS011;48240;52.962;5.790;2023-04-03T06:56:39;2.67;;;1.10;;
62256;SDS011;48240;52.962;5.790;2023-04-03T06:59:06;1.45;;;0.73;;
62256;SDS011;48240;52.962;5.790;2023-04-03T07:01:32;2.33;;;1.10;;
62256;SDS011;48240;52.962;5.790;2023-04-03T07:03:58;2.42;;;1.00;;
62256;SDS011;48240;52.962;5.790;2023-04-03T07:06:24;1.83;;;0.90;;
62256;SDS011;48240;52.962;5.790;2023-04-03T07:08:51;2.70;;;0.90;;
62256;SDS011;48240;52.962;5.790;2023-04-03T07:11:18;3.17;;;0.90;;
62256;SDS011;48240;52.962;5.790;2023-04-03T07:13:45;2.30;;;0.80;;
62256;SDS011;48240;52.962;5.790;2023-04-03T07:16:12;3.55;;;1.00;;
62256;SDS011;48240;52.962;5.790;2023-04-03T07:18:38;2.90;;;0.95;;
62256;SDS011;48240;52.962;5.790;2023-04-03T07:21:04;1.70;;;0.80;;
62256;SDS011;48240;52.962;5.790;2023-04-03T07:23:31;3.63;;;1.10;;
62256;SDS011;48240;52.962;5.790;2023-04-03T07:25:57;2.75;;;1.15;;
62256;SDS011;48240;52.962;5.790;2023-04-03T07:28:23;3.42;;;0.90;;
62256;SDS011;48240;52.962;5.790;2023-04-03T07:30:53;2.13;;;0.93;;
62256;SDS011;48240;52.962;5.790;2023-04-03T07:33:21;2.13;;;0.85;;
62256;SDS011;48240;52.962;5.790;2023-04-03T07:35:47;2.33;;;0.80;;
62256;SDS011;48240;52.962;5.790;2023-04-03T07:38:14;3.50;;;0.90;;
62256;SDS011;48240;52.962;5.790;2023-04-03T07:40:45;2.35;;;0.90;;
62256;SDS011;48240;52.962;5.790;2023-04-03T07:43:11;3.28;;;1.15;;
62256;SDS011;48240;52.962;5.790;2023-04-03T07:45:37;1.60;;;0.90;;
62256;SDS011;48240;52.962;5.790;2023-04-03T07:48:03;4.18;;;0.80;;
62256;SDS011;48240;52.962;5.790;2023-04-03T07:50:30;2.15;;;0.90;;
62256;SDS011;48240;52.962;5.790;2023-04-03T07:52:57;2.67;;;0.85;;
62256;SDS011;48240;52.962;5.790;2023-04-03T07:55:23;3.22;;;0.98;;
62256;SDS011;48240;52.962;5.790;2023-04-03T07:57:49;2.25;;;0.80;;
62256;SDS011;48240;52.962;5.790;2023-04-03T08:00:16;2.25;;;0.80;;
62256;SDS011;48240;52.962;5.790;2023-04-03T08:02:43;2.63;;;1.20;;
62256;SDS011;48240;52.962;5.790;2023-04-03T08:05:10;2.13;;;0.90;;
62256;SDS011;48240;52.962;5.790;2023-04-03T08:07:37;4.32;;;0.98;;
62256;SDS011;48240;52.962;5.790;2023-04-03T08:10:03;3.38;;;1.02;;
62256;SDS011;48240;52.962;5.790;2023-04-03T08:12:29;2.75;;;1.05;;
62256;SDS011;48240;52.962;5.790;2023-04-03T08:14:57;2.65;;;0.90;;
62256;SDS011;48240;52.962;5.790;2023-04-03T08:17:23;3.63;;;0.80;;
62256;SDS011;48240;52.962;5.790;2023-04-03T08:19:49;4.20;;;0.85;;
62256;SDS011;48240;52.962;5.790;2023-04-03T08:22:15;2.45;;;1.00;;
62256;SDS011;48240;52.962;5.790;2023-04-03T08:24:41;1.30;;;0.68;;
62256;SDS011;48240;52.962;5.790;2023-04-03T08:27:07;1.98;;;0.80;;
62256;SDS011;48240;52.962;5.790;2023-04-03T08:29:33;2.25;;;0.75;;
62256;SDS011;48240;52.962;5.790;2023-04-03T08:32:02;3.97;;;0.90;;
62256;SDS011;48240;52.962;5.790;2023-04-03T08:34:28;2.33;;;0.70;;
62256;SDS011;48240;52.962;5.790;2023-04-03T08:36:55;2.78;;;0.70;;
62256;SDS011;48240;52.962;5.790;2023-04-03T08:39:21;3.05;;;0.88;;
62256;SDS011;48240;52.962;5.790;2023-04-03T08:41:47;3.72;;;1.27;;
62256;SDS011;48240;52.962;5.790;2023-04-03T08:44:35;9.23;;;1.20;;
62256;SDS011;48240;52.962;5.790;2023-04-03T08:47:10;3.20;;;1.00;;
62256;SDS011;48240;52.962;5.790;2023-04-03T08:52:04;3.90;;;1.10;;
62256;SDS011;48240;52.962;5.790;2023-04-03T08:54:34;4.50;;;0.80;;
62256;SDS011;48240;52.962;5.790;2023-04-03T08:57:02;4.22;;;1.02;;
62256;SDS011;48240;52.962;5.790;2023-04-03T08:59:30;4.28;;;0.80;;
62256;SDS011;48240;52.962;5.790;2023-04-03T09:01:58;1.88;;;0.77;;
62256;SDS011;48240;52.962;5.790;2023-04-03T09:04:25;1.98;;;0.68;;
62256;SDS011;48240;52.962;5.790;2023-04-03T09:06:54;3.65;;;0.63;;
62256;SDS011;48240;52.962;5.790;2023-04-03T09:09:31;2.55;;;0.60;;
62256;SDS011;48240;52.962;5.790;2023-04-03T09:12:18;3.88;;;0.80;;
62256;SDS011;48240;52.962;5.790;2023-04-03T09:14:49;2.15;;;0.77;;
62256;SDS011;48240;52.962;5.790;2023-04-03T09:20:09;1.13;;;0.60;;
62256;SDS011;48240;52.962;5.790;2023-04-03T09:22:40;3.00;;;0.70;;
62256;SDS011;48240;52.962;5.790;2023-04-03T09:27:36;1.58;;;0.50;;
62256;SDS011;48240;52.962;5.790;2023-04-03T09:30:03;3.33;;;0.60;;
62256;SDS011;48240;52.962;5.790;2023-04-03T09:32:33;1.77;;;0.50;;
62256;SDS011;48240;52.962;5.790;2023-04-03T09:35:04;2.35;;;0.80;;
62256;SDS011;48240;52.962;5.790;2023-04-03T09:40:03;2.22;;;0.60;;
62256;SDS011;48240;52.962;5.790;2023-04-03T09:42:30;3.60;;;0.70;;
62256;SDS011;48240;52.962;5.790;2023-04-03T09:44:58;1.40;;;0.55;;
62256;SDS011;48240;52.962;5.790;2023-04-03T09:47:26;4.32;;;0.65;;
62256;SDS011;48240;52.962;5.790;2023-04-03T09:52:38;1.90;;;0.55;;
62256;SDS011;48240;52.962;5.790;2023-04-03T09:55:27;2.90;;;0.50;;
62256;SDS011;48240;52.962;5.790;2023-04-03T09:58:00;4.13;;;0.65;;
62256;SDS011;48240;52.962;5.790;2023-04-03T10:00:36;3.57;;;0.63;;
62256;SDS011;48240;52.962;5.790;2023-04-03T10:03:04;1.27;;;0.50;;
62256;SDS011;48240;52.962;5.790;2023-04-03T10:05:32;1.02;;;0.43;;
62256;SDS011;48240;52.962;5.790;2023-04-03T10:10:43;2.17;;;0.60;;
62256;SDS011;48240;52.962;5.790;2023-04-03T10:13:16;1.92;;;0.70;;
62256;SDS011;48240;52.962;5.790;2023-04-03T10:15:45;1.60;;;0.50;;
62256;SDS011;48240;52.962;5.790;2023-04-03T10:18:19;3.25;;;0.60;;
62256;SDS011;48240;52.962;5.790;2023-04-03T10:20:51;3.20;;;0.60;;
62256;SDS011;48240;52.962;5.790;2023-04-03T10:23:31;1.80;;;0.43;;
62256;SDS011;48240;52.962;5.790;2023-04-03T10:31:13;2.08;;;0.60;;
62256;SDS011;48240;52.962;5.790;2023-04-03T10:33:55;1.98;;;0.50;;
62256;SDS011;48240;52.962;5.790;2023-04-03T10:39:17;3.88;;;0.60;;
62256;SDS011;48240;52.962;5.790;2023-04-03T10:41:54;2.17;;;0.82;;
62256;SDS011;48240;52.962;5.790;2023-04-03T10:46:52;1.25;;;0.75;;
62256;SDS011;48240;52.962;5.790;2023-04-03T10:49:38;1.55;;;0.65;;
62256;SDS011;48240;52.962;5.790;2023-04-03T10:55:03;3.08;;;0.80;;
62256;SDS011;48240;52.962;5.790;2023-04-03T10:57:32;2.58;;;0.70;;
62256;SDS011;48240;52.962;5.790;2023-04-03T11:00:02;2.35;;;0.60;;
62256;SDS011;48240;52.962;5.790;2023-04-03T11:02:33;3.13;;;0.60;;
62256;SDS011;48240;52.962;5.790;2023-04-03T11:05:03;1.98;;;0.70;;
62256;SDS011;48240;52.962;5.790;2023-04-03T11:07:37;2.95;;;0.70;;
62256;SDS011;48240;52.962;5.790;2023-04-03T11:10:14;1.67;;;0.60;;
62256;SDS011;48240;52.962;5.790;2023-04-03T11:12:58;1.73;;;0.60;;
62256;SDS011;48240;52.962;5.790;2023-04-03T11:15:28;2.63;;;0.65;;
62256;SDS011;48240;52.962;5.790;2023-04-03T11:18:02;1.20;;;0.45;;
62256;SDS011;48240;52.962;5.790;2023-04-03T11:20:30;1.13;;;0.57;;
62256;SDS011;48240;52.962;5.790;2023-04-03T11:23:14;2.40;;;0.65;;
62256;SDS011;48240;52.962;5.790;2023-04-03T11:25:45;1.60;;;0.55;;
62256;SDS011;48240;52.962;5.790;2023-04-03T11:28:14;4.38;;;0.68;;
62256;SDS011;48240;52.962;5.790;2023-04-03T11:35:56;2.70;;;0.60;;
62256;SDS011;48240;52.962;5.790;2023-04-03T11:38:33;4.13;;;0.50;;
62256;SDS011;48240;52.962;5.790;2023-04-03T11:41:02;1.77;;;0.60;;
62256;SDS011;48240;52.962;5.790;2023-04-03T11:43:29;2.13;;;0.60;;
62256;SDS011;48240;52.962;5.790;2023-04-03T11:45:57;1.95;;;0.50;;
62256;SDS011;48240;52.962;5.790;2023-04-03T11:50:54;4.03;;;0.43;;
62256;SDS011;48240;52.962;5.790;2023-04-03T11:55:57;1.92;;;0.47;;
62256;SDS011;48240;52.962;5.790;2023-04-03T11:58:27;2.25;;;0.50;;
62256;SDS011;48240;52.962;5.790;2023-04-03T12:01:04;1.73;;;0.60;;
62256;SDS011;48240;52.962;5.790;2023-04-03T12:26:25;1.52;;;0.60;;
62256;SDS011;48240;52.962;5.790;2023-04-03T12:28:52;0.87;;;0.40;;
62256;SDS011;48240;52.962;5.790;2023-04-03T12:31:19;3.17;;;0.50;;
62256;SDS011;48240;52.962;5.790;2023-04-03T12:36:17;1.83;;;0.60;;
62256;SDS011;48240;52.962;5.790;2023-04-03T12:47:23;0.98;;;0.30;;
62256;SDS011;48240;52.962;5.790;2023-04-03T12:49:50;2.17;;;0.52;;
62256;SDS011;48240;52.962;5.790;2023-04-03T12:54:43;1.25;;;0.57;;
62256;SDS011;48240;52.962;5.790;2023-04-03T12:57:24;2.78;;;0.50;;
62256;SDS011;48240;52.962;5.790;2023-04-03T12:59:51;1.52;;;0.60;;
62256;SDS011;48240;52.962;5.790;2023-04-03T13:04:43;1.45;;;0.43;;
62256;SDS011;48240;52.962;5.790;2023-04-03T13:07:30;1.52;;;0.57;;
62256;SDS011;48240;52.962;5.790;2023-04-03T13:12:30;1.95;;;0.45;;
62256;SDS011;48240;52.962;5.790;2023-04-03T13:14:58;1.75;;;0.55;;
62256;SDS011;48240;52.962;5.790;2023-04-03T13:17:24;1.35;;;0.75;;
62256;SDS011;48240;52.962;5.790;2023-04-03T13:19:53;1.38;;;0.60;;
62256;SDS011;48240;52.962;5.790;2023-04-03T13:24:49;1.85;;;0.50;;
62256;SDS011;48240;52.962;5.790;2023-04-03T13:27:15;1.90;;;0.70;;
62256;SDS011;48240;52.962;5.790;2023-04-03T13:29:42;1.65;;;0.60;;
62256;SDS011;48240;52.962;5.790;2023-04-03T13:32:14;1.58;;;0.60;;
62256;SDS011;48240;52.962;5.790;2023-04-03T13:34:42;1.25;;;0.47;;
62256;SDS011;48240;52.962;5.790;2023-04-03T13:37:20;1.35;;;0.50;;
62256;SDS011;48240;52.962;5.790;2023-04-03T13:39:55;3.40;;;0.52;;
62256;SDS011;48240;52.962;5.790;2023-04-03T13:42:26;0.93;;;0.40;;
62256;SDS011;48240;52.962;5.790;2023-04-03T13:47:40;2.08;;;0.50;;
62256;SDS011;48240;52.962;5.790;2023-04-03T13:52:43;2.25;;;0.50;;
62256;SDS011;48240;52.962;5.790;2023-04-03T13:57:52;1.13;;;0.40;;
62256;SDS011;48240;52.962;5.790;2023-04-03T14:00:29;3.25;;;0.68;;
62256;SDS011;48240;52.962;5.790;2023-04-03T14:02:56;1.17;;;0.50;;
62256;SDS011;48240;52.962;5.790;2023-04-03T14:05:22;3.35;;;0.40;;
62256;SDS011;48240;52.962;5.790;2023-04-03T14:07:50;0.73;;;0.50;;
62256;SDS011;48240;52.962;5.790;2023-04-03T14:10:17;2.03;;;0.50;;
62256;SDS011;48240;52.962;5.790;2023-04-03T14:12:43;1.20;;;0.50;;
62256;SDS011;48240;52.962;5.790;2023-04-03T14:15:18;2.72;;;0.60;;
62256;SDS011;48240;52.962;5.790;2023-04-03T14:17:45;4.25;;;0.60;;
62256;SDS011;48240;52.962;5.790;2023-04-03T14:20:16;5.95;;;0.60;;
62256;SDS011;48240;52.962;5.790;2023-04-03T14:22:43;1.75;;;0.50;;
62256;SDS011;48240;52.962;5.790;2023-04-03T14:25:09;1.55;;;0.57;;
62256;SDS011;48240;52.962;5.790;2023-04-03T14:27:36;1.83;;;0.60;;
62256;SDS011;48240;52.962;5.790;2023-04-03T14:30:04;3.35;;;0.50;;
62256;SDS011;48240;52.962;5.790;2023-04-03T14:32:31;1.27;;;0.60;;
62256;SDS011;48240;52.962;5.790;2023-04-03T14:34:57;2.78;;;0.60;;
62256;SDS011;48240;52.962;5.790;2023-04-03T14:37:24;1.35;;;0.57;;
62256;SDS011;48240;52.962;5.790;2023-04-03T14:39:53;1.35;;;0.57;;
62256;SDS011;48240;52.962;5.790;2023-04-03T14:42:21;2.33;;;0.60;;
62256;SDS011;48240;52.962;5.790;2023-04-03T14:44:48;2.28;;;0.68;;
62256;SDS011;48240;52.962;5.790;2023-04-03T14:47:16;3.00;;;0.60;;
62256;SDS011;48240;52.962;5.790;2023-04-03T14:49:42;3.03;;;0.75;;
62256;SDS011;48240;52.962;5.790;2023-04-03T14:54:44;2.75;;;0.60;;
62256;SDS011;48240;52.962;5.790;2023-04-03T14:57:10;0.90;;;0.50;;
62256;SDS011;48240;52.962;5.790;2023-04-03T14:59:38;1.33;;;0.73;;
62256;SDS011;48240;52.962;5.790;2023-04-03T15:02:10;1.33;;;0.40;;
62256;SDS011;48240;52.962;5.790;2023-04-03T15:04:38;1.30;;;0.47;;
62256;SDS011;48240;52.962;5.790;2023-04-03T15:07:04;3.03;;;0.60;;
62256;SDS011;48240;52.962;5.790;2023-04-03T15:09:30;2.60;;;0.47;;
62256;SDS011;48240;52.962;5.790;2023-04-03T15:11:57;1.42;;;0.50;;
62256;SDS011;48240;52.962;5.790;2023-04-03T15:14:23;1.45;;;0.52;;
62256;SDS011;48240;52.962;5.790;2023-04-03T15:16:49;3.58;;;0.50;;
62256;SDS011;48240;52.962;5.790;2023-04-03T15:19:15;1.48;;;0.60;;
62256;SDS011;48240;52.962;5.790;2023-04-03T15:21:42;7.53;;;0.60;;
62256;SDS011;48240;52.962;5.790;2023-04-03T15:24:08;1.42;;;0.50;;
62256;SDS011;48240;52.962;5.790;2023-04-03T15:26:35;2.10;;;0.73;;
62256;SDS011;48240;52.962;5.790;2023-04-03T15:29:01;3.55;;;0.70;;
62256;SDS011;48240;52.962;5.790;2023-04-03T15:31:27;4.07;;;0.65;;
62256;SDS011;48240;52.962;5.790;2023-04-03T15:33:53;1.38;;;0.50;;
62256;SDS011;48240;52.962;5.790;2023-04-03T15:36:19;3.03;;;0.60;;
62256;SDS011;48240;52.962;5.790;2023-04-03T15:38:45;2.60;;;0.52;;
62256;SDS011;48240;52.962;5.790;2023-04-03T15:41:11;2.15;;;0.60;;
62256;SDS011;48240;52.962;5.790;2023-04-03T15:43:38;0.73;;;0.45;;
62256;SDS011;48240;52.962;5.790;2023-04-03T15:46:04;0.88;;;0.40;;
62256;SDS011;48240;52.962;5.790;2023-04-03T15:48:30;1.95;;;0.55;;
62256;SDS011;48240;52.962;5.790;2023-04-03T15:50:57;1.00;;;0.55;;
62256;SDS011;48240;52.962;5.790;2023-04-03T15:53:23;1.80;;;0.47;;
62256;SDS011;48240;52.962;5.790;2023-04-03T15:55:49;1.65;;;0.50;;
62256;SDS011;48240;52.962;5.790;2023-04-03T15:58:15;0.50;;;0.32;;
62256;SDS011;48240;52.962;5.790;2023-04-03T16:00:41;1.77;;;0.60;;
62256;SDS011;48240;52.962;5.790;2023-04-03T16:03:08;1.08;;;0.40;;
62256;SDS011;48240;52.962;5.790;2023-04-03T16:05:35;1.40;;;0.50;;
62256;SDS011;48240;52.962;5.790;2023-04-03T16:08:03;2.28;;;0.50;;
62256;SDS011;48240;52.962;5.790;2023-04-03T16:10:30;2.70;;;0.68;;
62256;SDS011;48240;52.962;5.790;2023-04-03T16:12:56;2.58;;;0.60;;
62256;SDS011;48240;52.962;5.790;2023-04-03T16:15:23;1.30;;;0.60;;
62256;SDS011;48240;52.962;5.790;2023-04-03T16:17:49;3.33;;;0.60;;
62256;SDS011;48240;52.962;5.790;2023-04-03T16:20:15;0.68;;;0.47;;
62256;SDS011;48240;52.962;5.790;2023-04-03T17:36:19;6.15;;;1.20;;
62256;SDS011;48240;52.962;5.790;2023-04-03T17:38:45;3.45;;;0.95;;
62256;SDS011;48240;52.962;5.790;2023-04-03T17:41:12;5.22;;;1.00;;
62256;SDS011;48240;52.962;5.790;2023-04-03T17:43:39;1.35;;;0.90;;
62256;SDS011;48240;52.962;5.790;2023-04-03T17:46:07;4.95;;;0.85;;
62256;SDS011;48240;52.962;5.790;2023-04-03T17:48:34;3.80;;;1.17;;
62256;SDS011;48240;52.962;5.790;2023-04-03T17:51:04;1.75;;;0.85;;
62256;SDS011;48240;52.962;5.790;2023-04-03T17:53:30;4.15;;;0.90;;
62256;SDS011;48240;52.962;5.790;2023-04-03T17:55:56;2.67;;;0.90;;
62256;SDS011;48240;52.962;5.790;2023-04-03T17:58:22;3.55;;;0.82;;
62256;SDS011;48240;52.962;5.790;2023-04-03T18:00:48;5.20;;;1.13;;
62256;SDS011;48240;52.962;5.790;2023-04-03T18:03:14;2.22;;;0.90;;
62256;SDS011;48240;52.962;5.790;2023-04-03T18:05:41;2.25;;;0.90;;
62256;SDS011;48240;52.962;5.790;2023-04-03T18:08:07;3.70;;;1.10;;
62256;SDS011;48240;52.962;5.790;2023-04-03T18:10:34;2.08;;;0.75;;
62256;SDS011;48240;52.962;5.790;2023-04-03T18:13:00;4.82;;;0.80;;
62256;SDS011;48240;52.962;5.790;2023-04-03T18:15:26;8.95;;;1.23;;
62256;SDS011;48240;52.962;5.790;2023-04-03T18:17:53;10.80;;;4.20;;
62256;SDS011;48240;52.962;5.790;2023-04-03T18:20:21;7.80;;;2.58;;
62256;SDS011;48240;52.962;5.790;2023-04-03T18:22:48;7.13;;;2.65;;
62256;SDS011;48240;52.962;5.790;2023-04-03T18:25:15;7.03;;;2.60;;
62256;SDS011;48240;52.962;5.790;2023-04-03T18:27:42;9.80;;;2.60;;
62256;SDS011;48240;52.962;5.790;2023-04-03T18:30:09;3.38;;;2.13;;
62256;SDS011;48240;52.962;5.790;2023-04-03T18:32:36;6.38;;;2.40;;
62256;SDS011;48240;52.962;5.790;2023-04-03T18:35:02;5.40;;;2.15;;
62256;SDS011;48240;52.962;5.790;2023-04-03T18:37:28;3.90;;;2.08;;
62256;SDS011;48240;52.962;5.790;2023-04-03T18:39:55;4.78;;;2.00;;
62256;SDS011;48240;52.962;5.790;2023-04-03T18:42:23;3.22;;;1.90;;
62256;SDS011;48240;52.962;5.790;2023-04-03T18:44:51;6.20;;;2.00;;
62256;SDS011;48240;52.962;5.790;2023-04-03T18:47:18;4.97;;;2.15;;
62256;SDS011;48240;52.962;5.790;2023-04-03T18:49:44;6.38;;;2.10;;
62256;SDS011;48240;52.962;5.790;2023-04-03T18:52:11;12.82;;;4.03;;
62256;SDS011;48240;52.962;5.790;2023-04-03T18:54:37;6.50;;;2.92;;
62256;SDS011;48240;52.962;5.790;2023-04-03T18:57:04;9.10;;;2.97;;
62256;SDS011;48240;52.962;5.790;2023-04-03T18:59:30;8.77;;;3.00;;
62256;SDS011;48240;52.962;5.790;2023-04-03T19:01:56;6.93;;;2.60;;
62256;SDS011;48240;52.962;5.790;2023-04-03T19:04:24;4.85;;;2.58;;
62256;SDS011;48240;52.962;5.790;2023-04-03T19:06:51;5.60;;;2.40;;
62256;SDS011;48240;52.962;5.790;2023-04-03T19:09:17;7.30;;;2.50;;
62256;SDS011;48240;52.962;5.790;2023-04-03T19:11:43;6.65;;;2.70;;
62256;SDS011;48240;52.962;5.790;2023-04-03T19:14:10;5.68;;;2.33;;
62256;SDS011;48240;52.962;5.790;2023-04-03T19:16:36;6.57;;;2.20;;
62256;SDS011;48240;52.962;5.790;2023-04-03T19:19:02;4.82;;;2.05;;
62256;SDS011;48240;52.962;5.790;2023-04-03T19:21:28;7.50;;;2.28;;
62256;SDS011;48240;52.962;5.790;2023-04-03T19:23:54;7.18;;;2.28;;
62256;SDS011;48240;52.962;5.790;2023-04-03T19:26:23;6.75;;;2.10;;
62256;SDS011;48240;52.962;5.790;2023-04-03T19:28:50;7.88;;;2.25;;
62256;SDS011;48240;52.962;5.790;2023-04-03T19:31:18;4.30;;;1.80;;
62256;SDS011;48240;52.962;5.790;2023-04-03T19:33:48;7.72;;;2.22;;
62256;SDS011;48240;52.962;5.790;2023-04-03T19:36:14;6.38;;;2.08;;
62256;SDS011;48240;52.962;5.790;2023-04-03T19:38:41;5.82;;;1.95;;
62256;SDS011;48240;52.962;5.790;2023-04-03T19:41:11;5.45;;;1.95;;
62256;SDS011;48240;52.962;5.790;2023-04-03T19:43:37;6.53;;;2.07;;
62256;SDS011;48240;52.962;5.790;2023-04-03T19:46:04;7.63;;;2.10;;
62256;SDS011;48240;52.962;5.790;2023-04-03T19:48:30;4.28;;;1.77;;
62256;SDS011;48240;52.962;5.790;2023-04-03T19:50:56;4.20;;;2.00;;
62256;SDS011;48240;52.962;5.790;2023-04-03T19:53:22;5.15;;;1.70;;
62256;SDS011;48240;52.962;5.790;2023-04-03T19:55:53;5.35;;;2.33;;
62256;SDS011;48240;52.962;5.790;2023-04-03T19:58:23;3.88;;;1.75;;
62256;SDS011;48240;52.962;5.790;2023-04-03T20:00:51;3.35;;;1.70;;
62256;SDS011;48240;52.962;5.790;2023-04-03T20:03:17;3.13;;;1.60;;
62256;SDS011;48240;52.962;5.790;2023-04-03T20:05:44;3.33;;;1.50;;
62256;SDS011;48240;52.962;5.790;2023-04-03T20:08:10;3.10;;;1.45;;
62256;SDS011;48240;52.962;5.790;2023-04-03T20:10:37;2.92;;;1.38;;
62256;SDS011;48240;52.962;5.790;2023-04-03T20:13:06;4.70;;;1.58;;
62256;SDS011;48240;52.962;5.790;2023-04-03T20:15:35;4.35;;;1.45;;
62256;SDS011;48240;52.962;5.790;2023-04-03T20:18:08;3.05;;;1.40;;
62256;SDS011;48240;52.962;5.790;2023-04-03T20:20:35;4.90;;;1.47;;
62256;SDS011;48240;52.962;5.790;2023-04-03T20:23:09;2.77;;;1.30;;
62256;SDS011;48240;52.962;5.790;2023-04-03T20:25:41;3.85;;;1.60;;
62256;SDS011;48240;52.962;5.790;2023-04-03T20:28:07;4.77;;;1.30;;
62256;SDS011;48240;52.962;5.790;2023-04-03T20:30:34;3.20;;;1.25;;
62256;SDS011;48240;52.962;5.790;2023-04-03T20:33:01;3.40;;;1.20;;
62256;SDS011;48240;52.962;5.790;2023-04-03T20:35:28;3.55;;;1.30;;
62256;SDS011;48240;52.962;5.790;2023-04-03T20:37:54;3.35;;;1.40;;
62256;SDS011;48240;52.962;5.790;2023-04-03T20:40:20;3.08;;;1.30;;
62256;SDS011;48240;52.962;5.790;2023-04-03T20:42:46;2.80;;;1.40;;
62256;SDS011;48240;52.962;5.790;2023-04-03T20:45:15;5.53;;;1.30;;
62256;SDS011;48240;52.962;5.790;2023-04-03T20:47:41;3.55;;;1.25;;
62256;SDS011;48240;52.962;5.790;2023-04-03T20:50:08;1.60;;;1.02;;
62256;SDS011;48240;52.962;5.790;2023-04-03T20:52:34;1.88;;;1.10;;
62256;SDS011;48240;52.962;5.790;2023-04-03T20:55:00;4.05;;;1.33;;
62256;SDS011;48240;52.962;5.790;2023-04-03T20:57:27;1.95;;;1.15;;
62256;SDS011;48240;52.962;5.790;2023-04-03T20:59:53;3.10;;;1.00;;
62256;SDS011;48240;52.962;5.790;2023-04-03T21:02:19;3.15;;;1.10;;
62256;SDS011;48240;52.962;5.790;2023-04-03T21:04:47;3.80;;;1.10;;
62256;SDS011;48240;52.962;5.790;2023-04-03T21:20:49;1.83;;;1.10;;
62256;SDS011;48240;52.962;5.790;2023-04-03T21:23:15;2.15;;;0.98;;
62256;SDS011;48240;52.962;5.790;2023-04-03T21:25:41;1.88;;;1.10;;
62256;SDS011;48240;52.962;5.790;2023-04-03T21:28:08;2.15;;;1.17;;
62256;SDS011;48240;52.962;5.790;2023-04-03T21:30:34;2.05;;;1.10;;
62256;SDS011;48240;52.962;5.790;2023-04-03T21:33:00;1.77;;;1.13;;
62256;SDS011;48240;52.962;5.790;2023-04-03T21:35:25;2.05;;;1.02;;
62256;SDS011;48240;52.962;5.790;2023-04-03T21:37:52;2.80;;;1.40;;
62256;SDS011;48240;52.962;5.790;2023-04-03T21:40:18;1.75;;;1.00;;
62256;SDS011;48240;52.962;5.790;2023-04-03T21:42:44;2.10;;;1.10;;
62256;SDS011;48240;52.962;5.790;2023-04-03T21:45:10;2.97;;;1.02;;
62256;SDS011;48240;52.962;5.790;2023-04-03T21:47:41;2.75;;;1.13;;
62256;SDS011;48240;52.962;5.790;2023-04-03T21:50:08;4.00;;;1.30;;
62256;SDS011;48240;52.962;5.790;2023-04-03T21:52:34;3.40;;;1.00;;
62256;SDS011;48240;52.962;5.790;2023-04-03T21:55:00;2.05;;;0.98;;
62256;SDS011;48240;52.962;5.790;2023-04-03T21:57:26;3.72;;;1.08;;
62256;SDS011;48240;52.962;5.790;2023-04-03T21:59:53;2.80;;;1.05;;
